Time;durP1;ratioP1;P1;durP2;ratioP2;P2;SDS_P1;SDS_P2;PMS_P1;PMS_P2;Temp;Humidity;BMP_temperature;BMP_pressure;BME280_temperature;BME280_humidity;BME280_pressure;Samples;Min_cycle;Max_cycle;Signal;HPM_P1;HPM_P2
2021/05/02 00:00:17;;;;;;;26.27;19.33;;;10.00;99.90;;;;;;5028332;28;20125;-46
2021/05/02 00:02:43;;;;;;;25.40;19.13;;;10.00;99.90;;;;;;5026674;28;20119;-47
2021/05/02 00:05:10;;;;;;;29.90;21.13;;;10.00;99.90;;;;;;5028019;28;20064;-46
2021/05/02 00:07:36;;;;;;;22.25;17.85;;;10.00;99.90;;;;;;5026159;28;20045;-48
2021/05/02 00:10:04;;;;;;;24.48;17.55;;;10.00;99.90;;;;;;5028074;28;20033;-49
2021/05/02 00:12:29;;;;;;;22.45;17.10;;;10.00;99.90;;;;;;5028338;28;20060;-46
2021/05/02 00:14:55;;;;;;;23.23;17.92;;;9.90;99.90;;;;;;5028152;28;20057;-47
2021/05/02 00:17:22;;;;;;;22.15;17.65;;;9.90;99.90;;;;;;5027721;28;20033;-47
2021/05/02 00:19:49;;;;;;;27.92;20.63;;;9.90;99.90;;;;;;5026753;28;20109;-46
2021/05/02 00:22:19;;;;;;;24.65;18.40;;;9.90;99.90;;;;;;5027941;28;20026;-47
2021/05/02 00:24:47;;;;;;;26.85;18.85;;;9.90;99.90;;;;;;5027843;28;20084;-48
2021/05/02 00:27:13;;;;;;;25.13;17.48;;;9.90;99.90;;;;;;5027705;28;20029;-47
2021/05/02 00:29:43;;;;;;;28.25;20.45;;;9.90;99.90;;;;;;5027055;28;20026;-47
2021/05/02 00:32:09;;;;;;;25.50;19.63;;;9.90;99.90;;;;;;5027537;28;20029;-48
2021/05/02 00:34:35;;;;;;;24.20;17.77;;;9.90;99.90;;;;;;5027456;28;20053;-47
2021/05/02 00:37:03;;;;;;;24.40;18.52;;;9.90;99.90;;;;;;5027500;28;20029;-47
2021/05/02 00:39:30;;;;;;;30.20;21.35;;;9.90;99.90;;;;;;5026913;28;20056;-50
2021/05/02 00:41:58;;;;;;;28.40;20.83;;;9.90;99.90;;;;;;5027454;28;20029;-48
2021/05/02 00:44:39;;;;;;;28.30;20.52;;;9.90;99.90;;;;;;5027211;28;20506;-46
2021/05/02 00:47:12;;;;;;;30.20;21.50;;;9.80;99.90;;;;;;5025886;28;20029;-47
2021/05/02 00:49:57;;;;;;;29.60;20.08;;;9.80;99.90;;;;;;5026611;28;20039;-46
2021/05/02 00:52:50;;;;;;;26.17;19.65;;;9.70;99.90;;;;;;5027163;28;20549;-46
2021/05/02 00:55:27;;;;;;;27.13;19.30;;;9.80;99.90;;;;;;5027301;28;20494;-46
2021/05/02 00:58:03;;;;;;;30.50;21.48;;;9.80;99.90;;;;;;5026436;28;20072;-47
2021/05/02 01:00:32;;;;;;;30.95;22.38;;;9.80;99.90;;;;;;5026549;28;20060;-47
2021/05/02 01:02:59;;;;;;;28.17;20.77;;;9.70;99.90;;;;;;5025831;28;20025;-46
2021/05/02 01:05:25;;;;;;;28.27;20.73;;;9.70;99.90;;;;;;5027075;28;20220;-46
2021/05/02 01:07:55;;;;;;;31.50;21.17;;;9.70;99.90;;;;;;5025242;28;20296;-48
2021/05/02 01:10:21;;;;;;;26.73;21.05;;;9.60;99.90;;;;;;5026020;28;20542;-45
2021/05/02 01:12:52;;;;;;;30.55;20.60;;;9.60;99.90;;;;;;5027302;28;20037;-46
2021/05/02 01:15:23;;;;;;;25.85;19.75;;;9.50;99.90;;;;;;5025956;28;20570;-49
2021/05/02 01:17:54;;;;;;;29.05;19.90;;;9.50;99.90;;;;;;5026076;28;20112;-47
2021/05/02 01:20:20;;;;;;;27.58;19.33;;;9.40;99.90;;;;;;5023033;28;20044;-46
2021/05/02 01:22:50;;;;;;;26.65;19.95;;;9.50;99.90;;;;;;5026249;28;20036;-47
2021/05/02 01:25:16;;;;;;;25.52;18.83;;;9.50;99.90;;;;;;5026554;28;20112;-47
2021/05/02 01:27:41;;;;;;;27.75;19.40;;;9.40;99.90;;;;;;5024840;28;20120;-47
2021/05/02 01:30:10;;;;;;;28.45;20.08;;;9.40;99.90;;;;;;5025761;28;20044;-47
2021/05/02 01:32:36;;;;;;;26.67;19.42;;;9.40;99.90;;;;;;5026445;28;20033;-47
2021/05/02 01:35:05;;;;;;;26.20;19.33;;;9.30;99.90;;;;;;5026007;28;20482;-48
2021/05/02 01:37:31;;;;;;;29.60;21.38;;;9.40;99.90;;;;;;5025752;28;20072;-47
2021/05/02 01:39:58;;;;;;;27.73;20.20;;;9.40;99.90;;;;;;5026464;28;20017;-47
2021/05/02 01:42:23;;;;;;;25.88;20.50;;;9.40;99.90;;;;;;5026545;28;20057;-47
2021/05/02 01:44:49;;;;;;;28.45;21.25;;;9.30;99.90;;;;;;5026211;28;20060;-47
2021/05/02 01:47:20;;;;;;;30.10;21.45;;;9.30;99.90;;;;;;5026499;28;20029;-46
2021/05/02 01:49:54;;;;;;;28.63;20.95;;;9.20;99.90;;;;;;5018717;28;20034;-47
2021/05/02 01:52:20;;;;;;;34.08;23.75;;;9.20;99.90;;;;;;5007175;28;20394;-47
2021/05/02 01:54:46;;;;;;;28.38;21.08;;;9.20;99.90;;;;;;5006850;28;20022;-47
2021/05/02 01:57:18;;;;;;;31.80;22.00;;;9.20;99.90;;;;;;5007049;28;20572;-47
2021/05/02 01:59:46;;;;;;;30.30;21.65;;;9.10;99.90;;;;;;5005592;28;20030;-49
2021/05/02 02:02:12;;;;;;;30.08;22.65;;;9.20;99.90;;;;;;5007321;28;20030;-47
2021/05/02 02:04:40;;;;;;;33.28;23.15;;;9.10;99.90;;;;;;5007029;28;20029;-49
2021/05/02 02:07:05;;;;;;;32.60;23.58;;;9.10;99.90;;;;;;5005775;28;20030;-47
2021/05/02 02:09:31;;;;;;;33.72;23.75;;;9.10;99.90;;;;;;5005515;28;20040;-46
2021/05/02 02:12:00;;;;;;;31.50;23.08;;;9.00;99.90;;;;;;5010556;28;20128;-50
2021/05/02 02:14:26;;;;;;;36.20;25.08;;;9.00;99.90;;;;;;5023358;28;20056;-47
2021/05/02 02:16:52;;;;;;;35.70;23.73;;;9.00;99.90;;;;;;5029558;28;20053;-47
2021/05/02 02:19:19;;;;;;;31.23;22.65;;;9.00;99.90;;;;;;5028522;28;20032;-47
2021/05/02 02:21:48;;;;;;;31.73;22.80;;;9.00;99.90;;;;;;5026421;28;20108;-46
2021/05/02 02:24:18;;;;;;;37.10;23.42;;;8.90;99.90;;;;;;5029521;28;20044;-47
2021/05/02 02:26:53;;;;;;;35.38;24.33;;;8.90;99.90;;;;;;5030081;28;20494;-47
2021/05/02 02:29:19;;;;;;;35.88;24.42;;;8.80;99.90;;;;;;5027990;28;20454;-47
2021/05/02 02:31:49;;;;;;;36.58;24.98;;;8.80;99.90;;;;;;5028640;28;20029;-46
2021/05/02 02:34:15;;;;;;;37.80;24.58;;;8.70;99.90;;;;;;5029531;28;20021;-45
2021/05/02 02:36:42;;;;;;;39.35;25.75;;;8.70;99.90;;;;;;5029049;28;20029;-46
2021/05/02 02:39:08;;;;;;;32.90;23.73;;;8.70;99.90;;;;;;5028386;28;20021;-45
2021/05/02 02:41:39;;;;;;;34.58;23.60;;;8.60;99.90;;;;;;5019745;28;20436;-47
2021/05/02 02:44:10;;;;;;;36.70;24.70;;;8.60;99.90;;;;;;5029229;28;20022;-46
2021/05/02 02:47:03;;;;;;;35.08;24.30;;;8.60;99.90;;;;;;5029149;28;20021;-47
2021/05/02 02:49:33;;;;;;;40.85;24.95;;;8.50;99.90;;;;;;5025512;28;20037;-47
2021/05/02 02:52:02;;;;;;;38.15;24.75;;;8.50;99.90;;;;;;5028480;28;20486;-46
2021/05/02 02:54:29;;;;;;;37.80;25.27;;;8.50;99.90;;;;;;5029186;28;20030;-47
2021/05/02 02:56:59;;;;;;;37.50;25.05;;;8.50;99.90;;;;;;5025953;28;20499;-47
2021/05/02 02:59:28;;;;;;;35.38;24.00;;;8.40;99.90;;;;;;5028282;28;20025;-46
2021/05/02 03:01:56;;;;;;;35.97;24.48;;;8.40;99.90;;;;;;5028281;28;20041;-46
2021/05/02 03:04:24;;;;;;;34.08;23.58;;;8.40;99.90;;;;;;5028848;28;20056;-47
2021/05/02 03:06:53;;;;;;;33.05;22.80;;;8.40;99.90;;;;;;5015731;28;20491;-46
2021/05/02 03:09:20;;;;;;;39.03;26.08;;;8.40;99.90;;;;;;5026639;28;20037;-46
2021/05/02 03:11:46;;;;;;;36.60;25.17;;;8.40;99.90;;;;;;5028814;28;20030;-47
2021/05/02 03:14:12;;;;;;;37.45;25.42;;;8.40;99.90;;;;;;5029140;28;20188;-47
2021/05/02 03:16:40;;;;;;;38.88;25.77;;;8.40;99.90;;;;;;5029463;28;20017;-46
2021/05/02 03:19:25;;;;;;;35.45;24.38;;;8.40;99.90;;;;;;5026908;28;20026;-46
2021/05/02 03:22:06;;;;;;;34.33;23.13;;;8.40;99.90;;;;;;5028233;28;20034;-47
2021/05/02 03:24:38;;;;;;;35.92;23.90;;;8.40;99.90;;;;;;5029154;28;20029;-47
2021/05/02 03:27:09;;;;;;;36.13;25.33;;;8.40;99.90;;;;;;5028990;28;20045;-46
2021/05/02 03:29:40;;;;;;;36.88;23.98;;;8.40;99.90;;;;;;5028397;28;20029;-46
2021/05/02 03:32:09;;;;;;;35.35;23.40;;;8.40;99.90;;;;;;5028513;28;20025;-46
2021/05/02 03:34:40;;;;;;;36.97;24.25;;;8.40;99.90;;;;;;5027946;28;20033;-46
2021/05/02 03:37:09;;;;;;;37.22;23.65;;;8.40;99.90;;;;;;5029064;28;20014;-46
2021/05/02 03:39:36;;;;;;;39.10;25.33;;;8.30;99.90;;;;;;5028342;28;20017;-46
2021/05/02 03:42:02;;;;;;;37.08;25.55;;;8.30;99.90;;;;;;5028668;28;20041;-46
2021/05/02 03:44:27;;;;;;;40.75;26.02;;;8.30;99.90;;;;;;5028251;28;20099;-48
2021/05/02 03:46:53;;;;;;;36.97;25.48;;;8.30;99.90;;;;;;5028355;28;20374;-46
2021/05/02 03:49:18;;;;;;;45.03;26.90;;;8.30;99.90;;;;;;5027539;28;20041;-46
2021/05/02 03:51:44;;;;;;;36.58;24.55;;;8.20;99.90;;;;;;5027979;28;20402;-46
2021/05/02 03:54:09;;;;;;;37.80;25.55;;;8.20;99.90;;;;;;5027877;28;20033;-47
2021/05/02 03:56:36;;;;;;;37.50;24.92;;;8.10;99.90;;;;;;5028328;28;20017;-47
2021/05/02 03:59:08;;;;;;;39.45;24.15;;;8.10;99.90;;;;;;5027960;28;20025;-46
2021/05/02 04:01:35;;;;;;;40.03;26.33;;;8.10;99.90;;;;;;5026833;28;20021;-47
2021/05/02 04:04:01;;;;;;;38.85;26.05;;;8.10;99.90;;;;;;5027989;28;20112;-46
2021/05/02 04:06:27;;;;;;;40.22;26.67;;;8.10;99.90;;;;;;5027705;28;20105;-46
2021/05/02 04:08:53;;;;;;;39.42;26.60;;;8.00;99.90;;;;;;5027513;28;20782;-46
2021/05/02 04:11:19;;;;;;;39.97;27.15;;;8.10;99.90;;;;;;5028013;28;20064;-46
2021/05/02 04:13:44;;;;;;;40.33;26.75;;;8.00;99.90;;;;;;5027818;28;20620;-49
2021/05/02 04:16:16;;;;;;;44.38;28.05;;;8.10;99.90;;;;;;5027919;28;20080;-47
2021/05/02 04:18:42;;;;;;;39.65;26.75;;;8.10;99.90;;;;;;5027046;28;20021;-47
2021/05/02 04:21:09;;;;;;;41.95;26.90;;;8.10;99.90;;;;;;5027155;28;20113;-47
2021/05/02 04:23:34;;;;;;;42.92;28.13;;;8.10;99.90;;;;;;5027716;28;20033;-48
2021/05/02 04:26:00;;;;;;;42.70;28.58;;;8.10;99.90;;;;;;5027375;28;20037;-48
2021/05/02 04:28:27;;;;;;;43.35;27.40;;;8.10;99.90;;;;;;5027740;28;20025;-47
2021/05/02 04:30:53;;;;;;;45.53;29.88;;;8.10;99.90;;;;;;5027573;28;20068;-47
2021/05/02 04:33:18;;;;;;;40.47;27.90;;;8.10;99.90;;;;;;5007826;28;20455;-46
2021/05/02 04:35:44;;;;;;;43.63;29.90;;;8.00;99.90;;;;;;5007957;28;20072;-46
2021/05/02 04:38:09;;;;;;;47.08;30.33;;;8.00;99.90;;;;;;5006937;28;20500;-47
2021/05/02 04:40:35;;;;;;;46.15;30.88;;;7.90;99.90;;;;;;5007961;28;20099;-46
2021/05/02 04:43:01;;;;;;;45.25;30.42;;;7.80;99.90;;;;;;5007907;28;20022;-46
2021/05/02 04:45:27;;;;;;;47.30;31.13;;;7.80;99.90;;;;;;5007878;28;20026;-46
2021/05/02 04:47:55;;;;;;;50.70;31.38;;;7.80;99.90;;;;;;5007317;28;20408;-46
2021/05/02 04:50:20;;;;;;;46.55;30.70;;;7.80;99.90;;;;;;5007682;28;20022;-46
2021/05/02 04:52:46;;;;;;;48.38;30.85;;;7.80;99.90;;;;;;5022801;28;20280;-46
2021/05/02 04:55:12;;;;;;;47.65;29.98;;;7.80;99.90;;;;;;5007979;28;20033;-46
2021/05/02 04:57:37;;;;;;;45.08;29.48;;;7.90;99.90;;;;;;5007076;28;20037;-47
2021/05/02 05:00:05;;;;;;;43.53;29.10;;;7.90;99.90;;;;;;5007670;28;20402;-47
2021/05/02 05:02:30;;;;;;;41.08;28.60;;;7.90;99.90;;;;;;5015235;28;20050;-46
2021/05/02 05:04:56;;;;;;;44.33;29.50;;;7.90;99.90;;;;;;5007408;28;20111;-46
2021/05/02 05:07:21;;;;;;;41.00;28.17;;;8.00;99.90;;;;;;5007300;28;20506;-47
2021/05/02 05:09:47;;;;;;;44.38;30.23;;;8.00;99.90;;;;;;5028522;28;20034;-46
2021/05/02 05:12:12;;;;;;;43.97;27.95;;;8.00;99.90;;;;;;5027066;28;20041;-47
2021/05/02 05:14:37;;;;;;;45.13;29.92;;;7.90;99.90;;;;;;5026428;28;20112;-47
2021/05/02 05:17:03;;;;;;;43.15;29.23;;;8.00;99.90;;;;;;5026830;28;20430;-46
2021/05/02 05:19:28;;;;;;;45.40;30.27;;;8.10;99.90;;;;;;5025733;28;20028;-46
2021/05/02 05:21:54;;;;;;;44.75;30.00;;;8.00;99.90;;;;;;5025043;28;20072;-46
2021/05/02 05:24:19;;;;;;;45.88;29.60;;;8.00;99.90;;;;;;5026384;28;20468;-46
2021/05/02 05:26:45;;;;;;;47.63;31.77;;;8.10;99.90;;;;;;5026160;28;20069;-47
2021/05/02 05:29:10;;;;;;;48.30;30.98;;;8.10;99.90;;;;;;5025719;28;20037;-45
2021/05/02 05:31:37;;;;;;;47.83;30.15;;;8.20;99.90;;;;;;5025516;28;20099;-46
2021/05/02 05:34:02;;;;;;;45.45;30.38;;;8.20;99.90;;;;;;5027503;28;20434;-46
2021/05/02 05:36:28;;;;;;;49.83;31.10;;;8.20;99.90;;;;;;5026151;28;20076;-45
2021/05/02 05:38:53;;;;;;;45.25;28.63;;;8.30;99.90;;;;;;5023796;28;20041;-44
2021/05/02 05:41:19;;;;;;;44.78;28.75;;;8.30;99.90;;;;;;5027792;28;20020;-45
2021/05/02 05:43:44;;;;;;;45.33;30.27;;;8.30;99.90;;;;;;5027695;28;20040;-45
2021/05/02 05:46:13;;;;;;;48.33;32.42;;;8.30;99.90;;;;;;5030721;28;20108;-44
2021/05/02 05:48:40;;;;;;;42.15;29.13;;;8.30;99.90;;;;;;5030361;28;20026;-46
2021/05/02 05:51:07;;;;;;;44.15;29.73;;;8.40;99.90;;;;;;5029772;28;20101;-45
2021/05/02 05:53:38;;;;;;;47.28;31.08;;;8.40;99.90;;;;;;5029373;28;20427;-46
2021/05/02 05:56:04;;;;;;;45.65;29.10;;;8.30;99.90;;;;;;5030676;28;20033;-45
2021/05/02 05:58:31;;;;;;;41.67;27.85;;;8.40;99.90;;;;;;5030229;28;20108;-46
2021/05/02 06:00:57;;;;;;;41.72;26.63;;;8.40;99.90;;;;;;5030663;28;20487;-46
2021/05/02 06:03:23;;;;;;;40.95;27.85;;;8.40;99.90;;;;;;5030713;28;20117;-46
2021/05/02 06:05:48;;;;;;;42.78;28.45;;;8.50;99.90;;;;;;5026264;28;20022;-46
2021/05/02 06:08:14;;;;;;;46.25;30.25;;;8.50;99.90;;;;;;5029147;28;20290;-46
2021/05/02 06:10:40;;;;;;;42.33;27.55;;;8.40;99.90;;;;;;5031027;28;20033;-46
2021/05/02 06:13:06;;;;;;;40.70;27.60;;;8.50;99.90;;;;;;5031004;28;20025;-47
2021/05/02 06:15:33;;;;;;;43.80;27.83;;;8.50;99.90;;;;;;5030794;28;20470;-45
2021/05/02 06:17:58;;;;;;;41.28;28.17;;;8.50;99.90;;;;;;5030374;28;20018;-46
2021/05/02 06:20:24;;;;;;;43.55;27.63;;;8.60;99.90;;;;;;5030069;28;20025;-46
2021/05/02 06:22:50;;;;;;;38.80;25.75;;;8.60;99.90;;;;;;5027916;28;20022;-51
2021/05/02 06:25:16;;;;;;;38.08;26.00;;;8.60;99.90;;;;;;5031301;28;20033;-46
2021/05/02 06:27:41;;;;;;;39.13;26.98;;;8.50;99.90;;;;;;5030194;28;20040;-46
2021/05/02 06:30:08;;;;;;;42.15;26.58;;;8.70;99.90;;;;;;5027954;28;20018;-47
2021/05/02 06:32:34;;;;;;;40.88;26.45;;;8.70;99.90;;;;;;5029082;28;20034;-46
2021/05/02 06:35:00;;;;;;;38.53;26.77;;;8.80;99.90;;;;;;5030281;28;20475;-46
2021/05/02 06:37:26;;;;;;;39.88;26.52;;;8.90;99.90;;;;;;5029569;28;20482;-46
2021/05/02 06:39:51;;;;;;;37.00;25.38;;;8.90;99.90;;;;;;5030687;28;20048;-46
2021/05/02 06:42:17;;;;;;;38.13;25.75;;;8.90;99.90;;;;;;5030723;28;20517;-46
2021/05/02 06:44:43;;;;;;;39.65;26.40;;;8.80;99.90;;;;;;5029329;28;20573;-46
2021/05/02 06:47:08;;;;;;;39.83;27.35;;;8.80;99.90;;;;;;5030683;28;20036;-49
2021/05/02 06:49:34;;;;;;;38.58;25.58;;;8.70;99.90;;;;;;5029985;28;20418;-46
2021/05/02 06:51:59;;;;;;;36.58;24.83;;;8.80;99.90;;;;;;5015492;28;20439;-47
2021/05/02 06:54:26;;;;;;;34.13;24.33;;;8.70;99.90;;;;;;5020914;28;20033;-46
2021/05/02 06:56:51;;;;;;;31.73;23.20;;;8.70;99.90;;;;;;5023378;28;20022;-47
2021/05/02 06:59:17;;;;;;;33.88;23.80;;;8.80;99.90;;;;;;5010088;28;20072;-46
2021/05/02 07:01:42;;;;;;;36.47;24.13;;;8.70;99.90;;;;;;5010657;28;20140;-46
2021/05/02 07:04:09;;;;;;;34.97;23.85;;;8.80;99.90;;;;;;5025146;28;20029;-46
2021/05/02 07:06:35;;;;;;;29.80;20.65;;;8.80;99.90;;;;;;5029239;28;20021;-49
2021/05/02 07:09:04;;;;;;;28.38;19.75;;;8.80;99.90;;;;;;5029637;28;20056;-47
2021/05/02 07:11:29;;;;;;;28.92;20.88;;;9.00;99.90;;;;;;5030567;28;20506;-47
2021/05/02 07:13:55;;;;;;;31.70;21.42;;;8.90;99.90;;;;;;5030108;28;20033;-46
2021/05/02 07:16:21;;;;;;;30.17;21.73;;;9.00;99.90;;;;;;5030108;28;20036;-46
2021/05/02 07:18:48;;;;;;;35.30;23.25;;;9.00;99.90;;;;;;5029319;28;20021;-46
2021/05/02 07:21:15;;;;;;;31.17;20.83;;;9.00;99.90;;;;;;5029093;28;20014;-46
2021/05/02 07:23:43;;;;;;;29.73;20.48;;;9.10;99.90;;;;;;5030263;28;20030;-46
2021/05/02 07:26:08;;;;;;;31.15;20.17;;;9.10;99.90;;;;;;5029831;28;20025;-47
2021/05/02 07:28:34;;;;;;;25.42;18.90;;;9.20;99.90;;;;;;5029688;28;20040;-46
2021/05/02 07:30:59;;;;;;;25.42;16.90;;;9.30;99.90;;;;;;5029531;28;20148;-48
2021/05/02 07:33:27;;;;;;;21.08;15.15;;;9.50;99.90;;;;;;5029605;28;20061;-47
2021/05/02 07:35:53;;;;;;;24.63;15.85;;;9.70;99.90;;;;;;5027946;28;20021;-47
2021/05/02 07:38:19;;;;;;;22.63;15.68;;;9.80;99.90;;;;;;5029058;28;20018;-47
2021/05/02 07:40:44;;;;;;;20.58;14.73;;;10.00;99.90;;;;;;5029251;28;20030;-47
2021/05/02 07:43:10;;;;;;;19.40;14.40;;;10.10;99.90;;;;;;5030003;28;20524;-46
2021/05/02 07:45:35;;;;;;;20.73;15.88;;;10.30;99.90;;;;;;5029214;28;20090;-49
2021/05/02 07:48:01;;;;;;;19.30;13.20;;;10.50;99.90;;;;;;5028364;28;20475;-47
2021/05/02 07:50:26;;;;;;;17.33;12.55;;;10.50;99.90;;;;;;5028755;28;20076;-48
2021/05/02 07:52:52;;;;;;;18.48;13.45;;;10.50;99.90;;;;;;5028252;28;20026;-48
2021/05/02 07:55:17;;;;;;;19.90;13.48;;;10.60;99.90;;;;;;5029669;28;20409;-49
2021/05/02 07:57:43;;;;;;;20.33;12.55;;;10.50;99.90;;;;;;5029049;28;20052;-49
2021/05/02 08:00:09;;;;;;;18.15;13.23;;;10.50;99.90;;;;;;5029421;28;20116;-47
2021/05/02 08:02:34;;;;;;;19.50;13.43;;;10.40;99.90;;;;;;5029833;28;20354;-47
2021/05/02 08:05:00;;;;;;;20.38;15.15;;;10.30;99.90;;;;;;5029575;28;20112;-48
2021/05/02 08:07:25;;;;;;;18.10;13.50;;;10.30;99.90;;;;;;5027063;28;20133;-49
2021/05/02 08:09:51;;;;;;;18.52;13.88;;;10.50;99.90;;;;;;5029458;28;20029;-48
2021/05/02 08:12:17;;;;;;;18.88;15.23;;;10.40;99.90;;;;;;5029287;28;20564;-49
2021/05/02 08:14:43;;;;;;;20.45;14.77;;;10.50;99.90;;;;;;5029507;28;20075;-51
2021/05/02 08:17:09;;;;;;;19.50;15.27;;;10.60;99.90;;;;;;5029339;28;20025;-49
2021/05/02 08:19:34;;;;;;;18.67;13.70;;;10.60;99.90;;;;;;5028912;28;20092;-48
2021/05/02 08:22:02;;;;;;;19.83;13.27;;;11.00;99.90;;;;;;5028481;28;20032;-47
2021/05/02 08:24:29;;;;;;;17.35;12.95;;;11.10;99.90;;;;;;5029127;28;20495;-51
2021/05/02 08:26:55;;;;;;;16.70;11.75;;;11.40;99.90;;;;;;5029387;28;20032;-47
2021/05/02 08:29:20;;;;;;;16.38;11.93;;;11.40;99.90;;;;;;5027088;28;20029;-48
2021/05/02 08:31:46;;;;;;;15.93;12.15;;;11.80;99.90;;;;;;5027503;28;20188;-49
2021/05/02 08:34:11;;;;;;;13.00;10.63;;;12.50;99.90;;;;;;5027702;28;20025;-47
2021/05/02 08:36:37;;;;;;;18.13;11.23;;;12.90;98.20;;;;;;5028507;28;20021;-47
2021/05/02 08:39:03;;;;;;;12.65;10.68;;;13.60;96.40;;;;;;5028361;28;20026;-52
2021/05/02 08:41:28;;;;;;;11.65;10.13;;;14.40;92.00;;;;;;5011102;28;20027;-47
2021/05/02 08:43:56;;;;;;;12.82;10.90;;;14.90;89.70;;;;;;5028574;28;20033;-47
2021/05/02 08:46:23;;;;;;;13.93;11.38;;;14.80;90.50;;;;;;5028666;28;20034;-48
2021/05/02 08:48:49;;;;;;;12.85;10.82;;;14.00;91.80;;;;;;5028165;28;20276;-48
2021/05/02 08:51:15;;;;;;;15.65;11.80;;;13.30;92.70;;;;;;5027903;28;20108;-48
2021/05/02 08:53:41;;;;;;;14.45;11.38;;;13.00;95.30;;;;;;5028650;28;20071;-45
2021/05/02 08:56:06;;;;;;;15.88;11.30;;;12.90;96.30;;;;;;5029077;28;20025;-48
2021/05/02 08:58:32;;;;;;;13.02;11.43;;;13.50;95.90;;;;;;5028164;28;20033;-49
2021/05/02 09:00:59;;;;;;;13.05;11.57;;;13.90;93.60;;;;;;5029128;28;20056;-51
2021/05/02 09:03:43;;;;;;;14.27;11.57;;;14.30;92.00;;;;;;5027436;28;20029;-47
2021/05/02 09:06:18;;;;;;;13.20;10.35;;;14.50;89.80;;;;;;5028388;28;20029;-50
2021/05/02 09:08:44;;;;;;;13.27;10.68;;;14.80;87.10;;;;;;5027872;28;20044;-50
2021/05/02 09:11:10;;;;;;;12.77;11.00;;;14.70;90.20;;;;;;5028362;28;20033;-47
2021/05/02 09:13:45;;;;;;;12.73;11.30;;;14.80;89.70;;;;;;5028146;28;20040;-48
2021/05/02 09:16:10;;;;;;;13.20;10.07;;;15.20;88.70;;;;;;5028410;28;20475;-47
2021/05/02 09:18:48;;;;;;;10.40;9.23;;;16.30;81.70;;;;;;5027739;28;20079;-48
2021/05/02 09:21:26;;;;;;;11.70;9.48;;;16.30;79.80;;;;;;5029462;28;20104;-47
2021/05/02 09:23:52;;;;;;;8.77;7.88;;;15.90;81.50;;;;;;5029402;28;20029;-46
2021/05/02 09:26:34;;;;;;;9.48;7.68;;;15.90;78.80;;;;;;5030563;28;20025;-48
2021/05/02 09:29:02;;;;;;;12.63;8.73;;;16.90;73.50;;;;;;5029936;28;20057;-49
2021/05/02 09:31:33;;;;;;;11.43;8.20;;;16.80;69.10;;;;;;5032095;28;20116;-49
2021/05/02 09:34:12;;;;;;;;;;;16.30;68.10;;;;;;5032535;28;20029;-48
2021/05/02 09:36:52;;;;;;;10.18;8.60;;;15.70;71.00;;;;;;5031649;28;19924;-49
2021/05/02 09:39:39;;;;;;;10.05;8.77;;;15.00;71.50;;;;;;5028940;28;20056;-47
2021/05/02 09:42:14;;;;;;;10.65;8.32;;;14.90;76.80;;;;;;5028915;28;20094;-47
2021/05/02 09:44:44;;;;;;;11.30;8.88;;;14.50;74.50;;;;;;5032094;28;20018;-50
2021/05/02 09:47:28;;;;;;;9.88;8.88;;;14.30;77.90;;;;;;5032118;28;20021;-48
2021/05/02 09:50:23;;;;;;;8.95;8.02;;;14.00;76.20;;;;;;5029217;28;20401;-48
2021/05/02 09:52:56;;;;;;;9.07;6.95;;;13.60;79.20;;;;;;5029955;28;20079;-48
2021/05/02 09:55:22;;;;;;;9.20;6.93;;;13.60;81.00;;;;;;5031013;28;20539;-48
2021/05/02 09:58:07;;;;;;;8.90;6.80;;;13.80;78.40;;;;;;5030471;28;20018;-49
2021/05/02 10:00:50;;;;;;;7.45;6.32;;;14.80;74.70;;;;;;5027890;28;20044;-48
2021/05/02 10:03:16;;;;;;;8.32;6.30;;;15.20;72.80;;;;;;5021526;28;20030;-49
2021/05/02 10:05:54;;;;;;;7.35;6.15;;;15.70;70.70;;;;;;5029523;28;20025;-47
2021/05/02 10:08:21;;;;;;;10.32;6.40;;;16.20;68.70;;;;;;5029392;28;20487;-47
2021/05/02 10:10:47;;;;;;;7.22;5.85;;;16.40;69.20;;;;;;5029930;28;20594;-48
2021/05/02 10:13:12;;;;;;;9.48;5.75;;;16.90;65.30;;;;;;5030062;28;20038;-51
2021/05/02 10:15:38;;;;;;;6.78;6.05;;;17.80;65.50;;;;;;5029159;28;20033;-50
2021/05/02 10:18:04;;;;;;;7.63;5.53;;;18.70;59.90;;;;;;5028675;28;20499;-51
2021/05/02 10:20:30;;;;;;;7.32;5.13;;;19.10;58.40;;;;;;5029573;28;20266;-51
2021/05/02 10:22:55;;;;;;;6.05;5.25;;;19.10;61.70;;;;;;5027540;28;20156;-52
2021/05/02 10:25:21;;;;;;;8.57;6.07;;;19.80;57.00;;;;;;5030858;28;20037;-52
2021/05/02 10:27:49;;;;;;;6.22;5.63;;;20.00;54.20;;;;;;5029692;28;20029;-51
2021/05/02 10:30:29;;;;;;;5.72;5.15;;;19.60;57.60;;;;;;5030021;28;20033;-51
2021/05/02 10:33:11;;;;;;;6.78;5.15;;;20.30;57.40;;;;;;5030703;28;20035;-50
2021/05/02 10:35:47;;;;;;;6.55;5.80;;;20.50;55.70;;;;;;5031483;28;20102;-50
2021/05/02 10:38:18;;;;;;;7.22;5.70;;;20.20;52.70;;;;;;5030036;28;20108;-51
2021/05/02 10:40:45;;;;;;;6.07;5.03;;;20.00;52.50;;;;;;5030960;28;20188;-50
2021/05/02 10:43:29;;;;;;;5.30;4.80;;;20.00;53.50;;;;;;5030874;28;20476;-50
2021/05/02 10:45:55;;;;;;;8.73;6.25;;;20.50;55.60;;;;;;5029533;28;20029;-51
2021/05/02 10:48:23;;;;;;;6.20;5.32;;;20.60;51.50;;;;;;5030162;28;20029;-49
2021/05/02 10:50:54;;;;;;;5.57;4.95;;;20.90;56.50;;;;;;5030897;28;20558;-50
2021/05/02 10:53:24;;;;;;;6.03;5.00;;;21.50;52.20;;;;;;5030475;28;20026;-51
2021/05/02 10:56:05;;;;;;;7.82;5.82;;;21.30;49.40;;;;;;5029455;28;20037;-51
2021/05/02 10:58:41;;;;;;;5.18;3.72;;;20.90;51.00;;;;;;5030012;28;20029;-52
2021/05/02 11:01:11;;;;;;;5.20;4.53;;;20.90;51.00;;;;;;5028654;28;20037;-52
2021/05/02 11:03:37;;;;;;;5.38;4.47;;;20.70;50.30;;;;;;5030427;28;20040;-52
2021/05/02 11:06:11;;;;;;;6.43;5.43;;;21.40;51.10;;;;;;5029074;28;20029;-51
2021/05/02 11:08:51;;;;;;;7.20;4.78;;;21.90;45.80;;;;;;5028279;28;20025;-52
2021/05/02 11:11:31;;;;;;;5.30;4.70;;;22.60;47.90;;;;;;5030550;28;20379;-51
2021/05/02 11:16:39;;;;;;;8.23;6.20;;;21.10;50.20;;;;;;5030695;28;20033;-52
2021/05/02 11:19:09;;;;;;;9.40;6.43;;;19.90;52.70;;;;;;5030041;28;20021;-49
2021/05/02 11:21:46;;;;;;;10.13;6.53;;;19.20;55.30;;;;;;5030426;28;20095;-50
2021/05/02 11:24:13;;;;;;;8.73;7.13;;;17.90;57.20;;;;;;5030149;28;20033;-48
2021/05/02 11:29:47;;;;;;;9.40;7.32;;;17.10;58.00;;;;;;5029445;28;20040;-50
2021/05/02 11:32:13;;;;;;;10.35;7.78;;;16.50;61.60;;;;;;5029883;28;20065;-51
2021/05/02 11:34:51;;;;;;;10.18;7.45;;;16.70;61.20;;;;;;5030117;28;20598;-50
2021/05/02 11:37:40;;;;;;;10.68;8.10;;;16.70;60.70;;;;;;5029783;28;20527;-51
2021/05/02 11:40:24;;;;;;;11.60;8.75;;;16.70;61.50;;;;;;5030020;28;20028;-48
2021/05/02 11:42:54;;;;;;;11.35;7.85;;;16.40;62.40;;;;;;5028146;28;20033;-48
2021/05/02 11:45:22;;;;;;;15.32;9.13;;;16.10;64.30;;;;;;5028429;28;20487;-48
2021/05/02 11:47:48;;;;;;;11.32;8.90;;;15.60;63.60;;;;;;5029028;28;20120;-51
2021/05/02 11:50:15;;;;;;;9.27;7.55;;;15.70;65.40;;;;;;5029491;28;20021;-47
2021/05/02 11:52:49;;;;;;;12.85;9.02;;;15.90;62.10;;;;;;5029407;28;20025;-47
2021/05/02 11:55:42;;;;;;;11.73;8.50;;;15.80;62.60;;;;;;5029720;28;20025;-49
2021/05/02 11:58:15;;;;;;;17.25;12.10;;;15.90;64.90;;;;;;5029363;28;20025;-50
2021/05/02 12:00:46;;;;;;;10.10;8.07;;;15.40;65.60;;;;;;5029769;28;20017;-49
2021/05/02 12:03:14;;;;;;;9.65;7.60;;;15.00;68.60;;;;;;5029528;28;20337;-49
2021/05/02 12:05:51;;;;;;;11.68;7.35;;;14.50;70.40;;;;;;5029346;28;20545;-47
2021/05/02 12:08:18;;;;;;;11.30;6.28;;;13.70;71.80;;;;;;5028217;28;20280;-48
2021/05/02 12:10:44;;;;;;;9.88;6.47;;;13.70;72.70;;;;;;5028025;28;20696;-50
2021/05/02 12:13:34;;;;;;;9.90;6.30;;;13.80;72.40;;;;;;5029611;28;20103;-49
2021/05/02 12:16:01;;;;;;;10.40;6.90;;;13.60;74.70;;;;;;5029377;28;20024;-50
2021/05/02 12:18:44;;;;;;;12.02;7.30;;;13.50;75.90;;;;;;5028640;28;20049;-49
2021/05/02 12:21:30;;;;;;;8.60;6.70;;;13.50;77.60;;;;;;5029429;28;20036;-47
2021/05/02 12:24:13;;;;;;;7.78;5.93;;;13.50;78.50;;;;;;5009383;28;20049;-48
2021/05/02 12:26:43;;;;;;;8.50;5.90;;;13.50;80.80;;;;;;5009506;28;20388;-48
2021/05/02 12:29:26;;;;;;;9.40;6.73;;;13.40;78.70;;;;;;5008534;28;20034;-47
2021/05/02 12:31:57;;;;;;;9.30;6.88;;;13.10;80.00;;;;;;5009132;28;20276;-48
2021/05/02 12:34:26;;;;;;;;;;;12.90;83.50;;;;;;5009345;28;20057;-52
2021/05/02 12:36:54;;;;;;;12.02;8.88;;;12.60;84.60;;;;;;5008513;28;20279;-48
2021/05/02 12:39:19;;;;;;;13.73;8.95;;;12.30;88.40;;;;;;5007846;28;20373;-47
2021/05/02 12:41:52;;;;;;;12.05;8.98;;;12.30;91.70;;;;;;5009032;28;20080;-48
2021/05/02 12:44:26;;;;;;;14.18;10.25;;;12.50;93.70;;;;;;5008771;28;20038;-48
2021/05/02 12:46:53;;;;;;;13.35;10.30;;;12.60;92.70;;;;;;5008925;28;20037;-49
2021/05/02 12:49:24;;;;;;;15.20;10.70;;;12.70;92.80;;;;;;4990622;28;20659;-50
2021/05/02 12:52:10;;;;;;;15.18;10.52;;;13.50;92.80;;;;;;5012450;28;20045;-51